sensor_id;sensor_type;location;lat;lon;timestamp;temperature;humidity
66184;DHT22;52989;48.796;9.806;2022-07-18T00:01:58;14.70;86.70
66184;DHT22;52989;48.796;9.806;2022-07-18T00:04:24;14.80;86.20
66184;DHT22;52989;48.796;9.806;2022-07-18T00:06:50;14.80;85.00
66184;DHT22;52989;48.796;9.806;2022-07-18T00:09:16;14.80;84.50
66184;DHT22;52989;48.796;9.806;2022-07-18T00:11:41;14.80;84.10
66184;DHT22;52989;48.796;9.806;2022-07-18T00:14:07;14.70;85.50
66184;DHT22;52989;48.796;9.806;2022-07-18T00:16:33;14.60;85.00
66184;DHT22;52989;48.796;9.806;2022-07-18T00:18:58;14.60;85.30
66184;DHT22;52989;48.796;9.806;2022-07-18T00:21:26;14.60;85.60
66184;DHT22;52989;48.796;9.806;2022-07-18T00:23:51;14.40;87.60
66184;DHT22;52989;48.796;9.806;2022-07-18T00:26:17;14.30;90.10
66184;DHT22;52989;48.796;9.806;2022-07-18T00:28:43;14.20;89.60
66184;DHT22;52989;48.796;9.806;2022-07-18T00:31:08;14.30;89.20
66184;DHT22;52989;48.796;9.806;2022-07-18T00:33:34;14.30;88.40
66184;DHT22;52989;48.796;9.806;2022-07-18T00:36:00;14.20;87.30
66184;DHT22;52989;48.796;9.806;2022-07-18T00:38:25;14.90;86.10
66184;DHT22;52989;48.796;9.806;2022-07-18T00:40:51;14.80;85.20
66184;DHT22;52989;48.796;9.806;2022-07-18T00:43:17;14.30;87.90
66184;DHT22;52989;48.796;9.806;2022-07-18T00:45:47;14.40;89.10
66184;DHT22;52989;48.796;9.806;2022-07-18T00:48:13;14.50;88.10
66184;DHT22;52989;48.796;9.806;2022-07-18T00:50:39;14.10;88.20
66184;DHT22;52989;48.796;9.806;2022-07-18T00:53:05;14.20;89.10
66184;DHT22;52989;48.796;9.806;2022-07-18T00:55:31;14.00;89.90
66184;DHT22;52989;48.796;9.806;2022-07-18T00:57:58;14.00;90.40
66184;DHT22;52989;48.796;9.806;2022-07-18T01:00:24;13.90;90.40
66184;DHT22;52989;48.796;9.806;2022-07-18T01:03:08;14.00;91.10
66184;DHT22;52989;48.796;9.806;2022-07-18T01:05:34;14.10;90.40
66184;DHT22;52989;48.796;9.806;2022-07-18T01:08:00;13.80;90.80
66184;DHT22;52989;48.796;9.806;2022-07-18T01:10:26;13.70;90.60
66184;DHT22;52989;48.796;9.806;2022-07-18T01:12:51;13.80;90.20
66184;DHT22;52989;48.796;9.806;2022-07-18T01:15:17;13.60;91.00
66184;DHT22;52989;48.796;9.806;2022-07-18T01:17:43;13.60;91.40
66184;DHT22;52989;48.796;9.806;2022-07-18T01:20:09;13.50;91.20
66184;DHT22;52989;48.796;9.806;2022-07-18T01:22:35;13.40;91.20
66184;DHT22;52989;48.796;9.806;2022-07-18T01:25:00;13.40;91.30
66184;DHT22;52989;48.796;9.806;2022-07-18T01:27:26;13.20;91.60
66184;DHT22;52989;48.796;9.806;2022-07-18T01:29:52;13.50;91.20
66184;DHT22;52989;48.796;9.806;2022-07-18T01:32:19;13.50;90.90
66184;DHT22;52989;48.796;9.806;2022-07-18T01:34:47;13.40;91.30
66184;DHT22;52989;48.796;9.806;2022-07-18T01:37:14;13.50;91.00
66184;DHT22;52989;48.796;9.806;2022-07-18T01:39:41;13.40;92.00
66184;DHT22;52989;48.796;9.806;2022-07-18T01:42:09;13.50;92.80
66184;DHT22;52989;48.796;9.806;2022-07-18T01:44:35;13.70;91.00
66184;DHT22;52989;48.796;9.806;2022-07-18T01:47:03;13.30;91.90
66184;DHT22;52989;48.796;9.806;2022-07-18T01:49:28;13.20;92.10
66184;DHT22;52989;48.796;9.806;2022-07-18T01:51:56;13.00;94.40
66184;DHT22;52989;48.796;9.806;2022-07-18T01:54:27;13.40;92.50
66184;DHT22;52989;48.796;9.806;2022-07-18T01:56:54;13.20;94.90
66184;DHT22;52989;48.796;9.806;2022-07-18T01:59:20;13.30;93.60
66184;DHT22;52989;48.796;9.806;2022-07-18T02:01:46;13.20;93.90
66184;DHT22;52989;48.796;9.806;2022-07-18T02:04:11;13.30;92.50
66184;DHT22;52989;48.796;9.806;2022-07-18T02:06:37;13.30;91.80
66184;DHT22;52989;48.796;9.806;2022-07-18T02:09:04;13.10;92.30
66184;DHT22;52989;48.796;9.806;2022-07-18T02:11:30;12.90;93.80
66184;DHT22;52989;48.796;9.806;2022-07-18T02:13:55;13.00;95.60
66184;DHT22;52989;48.796;9.806;2022-07-18T02:16:21;13.20;95.10
66184;DHT22;52989;48.796;9.806;2022-07-18T02:18:46;13.10;94.60
66184;DHT22;52989;48.796;9.806;2022-07-18T02:21:12;13.20;93.70
66184;DHT22;52989;48.796;9.806;2022-07-18T02:23:39;12.90;94.60
66184;DHT22;52989;48.796;9.806;2022-07-18T02:26:05;12.80;95.40
66184;DHT22;52989;48.796;9.806;2022-07-18T02:28:31;12.70;95.50
66184;DHT22;52989;48.796;9.806;2022-07-18T02:30:57;12.80;96.00
66184;DHT22;52989;48.796;9.806;2022-07-18T02:33:22;13.00;96.60
66184;DHT22;52989;48.796;9.806;2022-07-18T02:35:48;12.90;95.10
66184;DHT22;52989;48.796;9.806;2022-07-18T02:38:13;12.80;95.60
66184;DHT22;52989;48.796;9.806;2022-07-18T02:40:39;12.80;95.70
66184;DHT22;52989;48.796;9.806;2022-07-18T02:43:05;12.70;96.60
66184;DHT22;52989;48.796;9.806;2022-07-18T02:45:30;12.40;97.70
66184;DHT22;52989;48.796;9.806;2022-07-18T02:47:56;12.30;98.50
66184;DHT22;52989;48.796;9.806;2022-07-18T02:50:22;12.40;98.80
66184;DHT22;52989;48.796;9.806;2022-07-18T02:52:48;12.50;97.90
66184;DHT22;52989;48.796;9.806;2022-07-18T02:55:15;12.20;98.90
66184;DHT22;52989;48.796;9.806;2022-07-18T02:57:41;12.20;98.90
66184;DHT22;52989;48.796;9.806;2022-07-18T03:00:09;12.10;99.80
66184;DHT22;52989;48.796;9.806;2022-07-18T03:02:35;12.40;99.90
66184;DHT22;52989;48.796;9.806;2022-07-18T03:05:02;12.60;99.90
66184;DHT22;52989;48.796;9.806;2022-07-18T03:07:27;12.50;98.80
66184;DHT22;52989;48.796;9.806;2022-07-18T03:09:53;12.70;98.30
66184;DHT22;52989;48.796;9.806;2022-07-18T03:12:19;12.60;98.90
66184;DHT22;52989;48.796;9.806;2022-07-18T03:14:44;12.60;98.40
66184;DHT22;52989;48.796;9.806;2022-07-18T03:17:10;12.40;97.50
66184;DHT22;52989;48.796;9.806;2022-07-18T03:19:36;12.20;98.00
66184;DHT22;52989;48.796;9.806;2022-07-18T03:22:03;12.20;98.20
66184;DHT22;52989;48.796;9.806;2022-07-18T03:24:29;12.30;97.90
66184;DHT22;52989;48.796;9.806;2022-07-18T03:26:55;12.10;98.50
66184;DHT22;52989;48.796;9.806;2022-07-18T03:29:21;12.00;98.90
66184;DHT22;52989;48.796;9.806;2022-07-18T03:31:47;12.30;99.90
66184;DHT22;52989;48.796;9.806;2022-07-18T03:34:13;12.20;99.90
66184;DHT22;52989;48.796;9.806;2022-07-18T03:36:39;12.30;98.60
66184;DHT22;52989;48.796;9.806;2022-07-18T03:39:05;12.10;99.50
66184;DHT22;52989;48.796;9.806;2022-07-18T03:41:32;12.00;99.90
66184;DHT22;52989;48.796;9.806;2022-07-18T03:43:59;12.10;99.90
66184;DHT22;52989;48.796;9.806;2022-07-18T03:46:24;12.10;99.90
66184;DHT22;52989;48.796;9.806;2022-07-18T03:48:50;12.00;99.90
66184;DHT22;52989;48.796;9.806;2022-07-18T03:51:15;12.00;99.90
66184;DHT22;52989;48.796;9.806;2022-07-18T03:53:41;11.80;99.90
66184;DHT22;52989;48.796;9.806;2022-07-18T03:56:07;11.90;99.90
66184;DHT22;52989;48.796;9.806;2022-07-18T03:58:33;11.90;99.90
66184;DHT22;52989;48.796;9.806;2022-07-18T04:00:59;11.80;99.90
66184;DHT22;52989;48.796;9.806;2022-07-18T04:03:25;11.70;99.90
66184;DHT22;52989;48.796;9.806;2022-07-18T04:05:50;11.70;99.90
66184;DHT22;52989;48.796;9.806;2022-07-18T04:08:16;11.90;99.90
66184;DHT22;52989;48.796;9.806;2022-07-18T04:10:42;12.00;99.90
66184;DHT22;52989;48.796;9.806;2022-07-18T04:13:09;12.00;99.90
66184;DHT22;52989;48.796;9.806;2022-07-18T04:15:35;12.10;99.80
66184;DHT22;52989;48.796;9.806;2022-07-18T04:18:01;12.20;98.60
66184;DHT22;52989;48.796;9.806;2022-07-18T04:20:27;12.40;98.80
66184;DHT22;52989;48.796;9.806;2022-07-18T04:22:55;12.30;98.20
66184;DHT22;52989;48.796;9.806;2022-07-18T04:25:23;12.00;98.90
66184;DHT22;52989;48.796;9.806;2022-07-18T04:27:50;11.90;99.40
66184;DHT22;52989;48.796;9.806;2022-07-18T04:30:18;11.90;99.90
66184;DHT22;52989;48.796;9.806;2022-07-18T04:32:44;11.80;99.90
66184;DHT22;52989;48.796;9.806;2022-07-18T04:35:10;11.90;99.90
66184;DHT22;52989;48.796;9.806;2022-07-18T04:37:40;12.00;99.90
66184;DHT22;52989;48.796;9.806;2022-07-18T04:40:07;12.00;99.90
66184;DHT22;52989;48.796;9.806;2022-07-18T04:42:34;11.80;99.90
66184;DHT22;52989;48.796;9.806;2022-07-18T04:44:59;11.90;99.90
66184;DHT22;52989;48.796;9.806;2022-07-18T04:47:26;12.00;99.90
66184;DHT22;52989;48.796;9.806;2022-07-18T04:49:52;11.80;99.90
66184;DHT22;52989;48.796;9.806;2022-07-18T04:52:17;12.10;99.90
66184;DHT22;52989;48.796;9.806;2022-07-18T04:54:43;12.20;99.90
66184;DHT22;52989;48.796;9.806;2022-07-18T04:57:09;12.50;99.90
66184;DHT22;52989;48.796;9.806;2022-07-18T04:59:37;12.50;99.90
66184;DHT22;52989;48.796;9.806;2022-07-18T05:02:03;12.50;99.40
66184;DHT22;52989;48.796;9.806;2022-07-18T05:04:29;12.50;98.70
66184;DHT22;52989;48.796;9.806;2022-07-18T05:06:55;12.40;99.60
66184;DHT22;52989;48.796;9.806;2022-07-18T05:09:20;12.30;99.80
66184;DHT22;52989;48.796;9.806;2022-07-18T05:11:46;12.20;99.90
66184;DHT22;52989;48.796;9.806;2022-07-18T05:14:11;12.30;99.60
66184;DHT22;52989;48.796;9.806;2022-07-18T05:16:37;12.60;98.70
66184;DHT22;52989;48.796;9.806;2022-07-18T05:19:02;12.60;98.60
66184;DHT22;52989;48.796;9.806;2022-07-18T05:21:28;12.60;99.90
66184;DHT22;52989;48.796;9.806;2022-07-18T05:23:54;12.50;99.40
66184;DHT22;52989;48.796;9.806;2022-07-18T05:26:19;13.40;99.30
66184;DHT22;52989;48.796;9.806;2022-07-18T05:28:45;13.30;96.70
66184;DHT22;52989;48.796;9.806;2022-07-18T05:31:11;13.30;97.10
66184;DHT22;52989;48.796;9.806;2022-07-18T05:33:37;13.60;96.10
66184;DHT22;52989;48.796;9.806;2022-07-18T05:36:03;13.40;96.70
66184;DHT22;52989;48.796;9.806;2022-07-18T05:38:31;13.50;96.10
66184;DHT22;52989;48.796;9.806;2022-07-18T05:40:56;13.50;96.00
66184;DHT22;52989;48.796;9.806;2022-07-18T05:43:22;13.50;96.20
66184;DHT22;52989;48.796;9.806;2022-07-18T05:45:48;13.60;95.80
66184;DHT22;52989;48.796;9.806;2022-07-18T05:48:13;13.70;95.70
66184;DHT22;52989;48.796;9.806;2022-07-18T05:50:39;13.70;94.90
66184;DHT22;52989;48.796;9.806;2022-07-18T05:53:05;13.70;95.40
66184;DHT22;52989;48.796;9.806;2022-07-18T05:55:31;13.90;94.60
66184;DHT22;52989;48.796;9.806;2022-07-18T05:57:57;14.00;94.30
66184;DHT22;52989;48.796;9.806;2022-07-18T06:00:22;14.20;92.90
66184;DHT22;52989;48.796;9.806;2022-07-18T06:02:49;14.40;93.40
66184;DHT22;52989;48.796;9.806;2022-07-18T06:05:15;14.50;93.50
66184;DHT22;52989;48.796;9.806;2022-07-18T06:07:41;14.40;94.20
66184;DHT22;52989;48.796;9.806;2022-07-18T06:10:07;14.60;93.30
66184;DHT22;52989;48.796;9.806;2022-07-18T06:12:33;14.50;93.20
66184;DHT22;52989;48.796;9.806;2022-07-18T06:14:59;14.60;93.30
66184;DHT22;52989;48.796;9.806;2022-07-18T06:17:26;14.70;92.30
66184;DHT22;52989;48.796;9.806;2022-07-18T06:19:53;14.90;92.40
66184;DHT22;52989;48.796;9.806;2022-07-18T06:22:19;15.10;91.10
66184;DHT22;52989;48.796;9.806;2022-07-18T06:24:45;15.30;90.90
66184;DHT22;52989;48.796;9.806;2022-07-18T06:27:11;15.40;90.70
66184;DHT22;52989;48.796;9.806;2022-07-18T06:29:37;15.60;89.10
66184;DHT22;52989;48.796;9.806;2022-07-18T06:32:02;15.60;90.00
66184;DHT22;52989;48.796;9.806;2022-07-18T06:34:28;15.80;85.10
66184;DHT22;52989;48.796;9.806;2022-07-18T06:36:53;15.90;84.10
66184;DHT22;52989;48.796;9.806;2022-07-18T06:39:19;16.10;82.30
66184;DHT22;52989;48.796;9.806;2022-07-18T06:41:45;16.30;82.10
66184;DHT22;52989;48.796;9.806;2022-07-18T06:44:11;16.60;80.60
66184;DHT22;52989;48.796;9.806;2022-07-18T06:46:36;16.90;78.50
66184;DHT22;52989;48.796;9.806;2022-07-18T06:49:04;16.90;79.70
66184;DHT22;52989;48.796;9.806;2022-07-18T06:51:30;17.50;76.80
66184;DHT22;52989;48.796;9.806;2022-07-18T06:53:56;17.50;76.50
66184;DHT22;52989;48.796;9.806;2022-07-18T06:56:22;17.50;75.50
66184;DHT22;52989;48.796;9.806;2022-07-18T06:58:48;17.70;74.90
66184;DHT22;52989;48.796;9.806;2022-07-18T07:01:17;18.10;73.70
66184;DHT22;52989;48.796;9.806;2022-07-18T07:03:44;18.20;71.90
66184;DHT22;52989;48.796;9.806;2022-07-18T07:06:10;18.50;70.00
66184;DHT22;52989;48.796;9.806;2022-07-18T07:08:35;18.90;69.60
66184;DHT22;52989;48.796;9.806;2022-07-18T07:11:01;19.00;70.40
66184;DHT22;52989;48.796;9.806;2022-07-18T07:13:27;19.10;66.50
66184;DHT22;52989;48.796;9.806;2022-07-18T07:15:52;18.80;68.90
66184;DHT22;52989;48.796;9.806;2022-07-18T07:18:18;18.80;68.00
66184;DHT22;52989;48.796;9.806;2022-07-18T07:20:44;18.80;66.60
66184;DHT22;52989;48.796;9.806;2022-07-18T07:23:09;18.80;65.10
66184;DHT22;52989;48.796;9.806;2022-07-18T07:25:36;18.90;64.10
66184;DHT22;52989;48.796;9.806;2022-07-18T07:28:03;19.20;60.60
66184;DHT22;52989;48.796;9.806;2022-07-18T07:30:29;19.30;60.00
66184;DHT22;52989;48.796;9.806;2022-07-18T07:32:54;19.50;60.00
66184;DHT22;52989;48.796;9.806;2022-07-18T07:35:21;19.70;62.70
66184;DHT22;52989;48.796;9.806;2022-07-18T07:37:54;19.70;60.70
66184;DHT22;52989;48.796;9.806;2022-07-18T07:40:22;19.80;62.00
66184;DHT22;52989;48.796;9.806;2022-07-18T07:42:47;19.70;62.40
66184;DHT22;52989;48.796;9.806;2022-07-18T07:45:13;20.00;57.70
66184;DHT22;52989;48.796;9.806;2022-07-18T07:47:40;20.20;57.40
66184;DHT22;52989;48.796;9.806;2022-07-18T07:50:07;20.30;58.20
66184;DHT22;52989;48.796;9.806;2022-07-18T07:52:34;20.40;59.80
66184;DHT22;52989;48.796;9.806;2022-07-18T07:54:59;20.70;58.50
66184;DHT22;52989;48.796;9.806;2022-07-18T07:57:25;20.90;58.50
66184;DHT22;52989;48.796;9.806;2022-07-18T07:59:51;21.20;58.20
66184;DHT22;52989;48.796;9.806;2022-07-18T08:02:17;21.20;59.10
66184;DHT22;52989;48.796;9.806;2022-07-18T08:04:43;21.40;57.60
66184;DHT22;52989;48.796;9.806;2022-07-18T08:07:09;21.70;57.60
66184;DHT22;52989;48.796;9.806;2022-07-18T08:09:35;21.70;56.90
66184;DHT22;52989;48.796;9.806;2022-07-18T08:12:00;21.70;57.60
66184;DHT22;52989;48.796;9.806;2022-07-18T08:14:26;21.80;57.00
66184;DHT22;52989;48.796;9.806;2022-07-18T08:16:51;21.80;57.90
66184;DHT22;52989;48.796;9.806;2022-07-18T08:19:17;22.30;55.90
66184;DHT22;52989;48.796;9.806;2022-07-18T08:21:43;22.70;55.10
66184;DHT22;52989;48.796;9.806;2022-07-18T08:24:09;22.80;54.10
66184;DHT22;52989;48.796;9.806;2022-07-18T08:26:35;22.90;55.20
66184;DHT22;52989;48.796;9.806;2022-07-18T08:29:05;22.80;57.00
66184;DHT22;52989;48.796;9.806;2022-07-18T08:31:30;23.10;53.80
66184;DHT22;52989;48.796;9.806;2022-07-18T08:33:56;23.40;52.90
66184;DHT22;52989;48.796;9.806;2022-07-18T08:36:21;23.50;53.20
66184;DHT22;52989;48.796;9.806;2022-07-18T08:38:47;23.60;52.70
66184;DHT22;52989;48.796;9.806;2022-07-18T08:41:13;23.60;54.70
66184;DHT22;52989;48.796;9.806;2022-07-18T08:43:42;23.40;54.80
66184;DHT22;52989;48.796;9.806;2022-07-18T08:46:08;23.80;53.20
66184;DHT22;52989;48.796;9.806;2022-07-18T08:48:34;24.00;52.50
66184;DHT22;52989;48.796;9.806;2022-07-18T08:51:00;24.10;52.90
66184;DHT22;52989;48.796;9.806;2022-07-18T08:53:27;24.50;51.50
66184;DHT22;52989;48.796;9.806;2022-07-18T08:55:53;24.70;52.10
66184;DHT22;52989;48.796;9.806;2022-07-18T08:58:18;25.00;50.20
66184;DHT22;52989;48.796;9.806;2022-07-18T09:00:45;25.00;52.10
66184;DHT22;52989;48.796;9.806;2022-07-18T09:03:11;25.00;49.70
66184;DHT22;52989;48.796;9.806;2022-07-18T09:05:36;25.20;49.20
66184;DHT22;52989;48.796;9.806;2022-07-18T09:08:13;25.20;49.10
66184;DHT22;52989;48.796;9.806;2022-07-18T09:10:55;25.40;49.90
66184;DHT22;52989;48.796;9.806;2022-07-18T09:13:25;25.60;49.70
66184;DHT22;52989;48.796;9.806;2022-07-18T09:15:58;25.90;48.30
66184;DHT22;52989;48.796;9.806;2022-07-18T09:18:29;26.20;46.60
66184;DHT22;52989;48.796;9.806;2022-07-18T09:21:00;26.10;45.80
66184;DHT22;52989;48.796;9.806;2022-07-18T09:23:28;26.10;45.90
66184;DHT22;52989;48.796;9.806;2022-07-18T09:25:54;26.20;45.00
66184;DHT22;52989;48.796;9.806;2022-07-18T09:28:20;26.40;44.80
66184;DHT22;52989;48.796;9.806;2022-07-18T09:30:46;26.50;44.70
66184;DHT22;52989;48.796;9.806;2022-07-18T09:33:11;26.60;44.40
66184;DHT22;52989;48.796;9.806;2022-07-18T09:35:43;26.70;45.50
66184;DHT22;52989;48.796;9.806;2022-07-18T09:38:11;26.60;44.40
66184;DHT22;52989;48.796;9.806;2022-07-18T09:40:39;26.60;44.20
66184;DHT22;52989;48.796;9.806;2022-07-18T09:43:07;26.70;44.40
66184;DHT22;52989;48.796;9.806;2022-07-18T09:45:38;26.70;43.50
66184;DHT22;52989;48.796;9.806;2022-07-18T09:48:10;26.70;45.30
66184;DHT22;52989;48.796;9.806;2022-07-18T09:53:09;26.90;47.60
66184;DHT22;52989;48.796;9.806;2022-07-18T09:55:38;26.60;48.50
66184;DHT22;52989;48.796;9.806;2022-07-18T09:58:07;26.90;46.00
66184;DHT22;52989;48.796;9.806;2022-07-18T10:00:38;27.00;44.10
66184;DHT22;52989;48.796;9.806;2022-07-18T10:03:06;27.50;44.70
66184;DHT22;52989;48.796;9.806;2022-07-18T10:05:34;27.60;45.90
66184;DHT22;52989;48.796;9.806;2022-07-18T10:08:01;27.40;47.40
66184;DHT22;52989;48.796;9.806;2022-07-18T10:10:28;27.40;47.00
66184;DHT22;52989;48.796;9.806;2022-07-18T10:12:56;27.70;45.20
66184;DHT22;52989;48.796;9.806;2022-07-18T10:15:23;27.70;44.30
66184;DHT22;52989;48.796;9.806;2022-07-18T10:17:49;27.90;45.10
66184;DHT22;52989;48.796;9.806;2022-07-18T10:20:15;27.90;43.40
66184;DHT22;52989;48.796;9.806;2022-07-18T10:22:42;27.90;43.70
66184;DHT22;52989;48.796;9.806;2022-07-18T10:25:09;28.20;45.70
66184;DHT22;52989;48.796;9.806;2022-07-18T10:27:53;28.30;44.90
66184;DHT22;52989;48.796;9.806;2022-07-18T10:30:34;28.60;44.10
66184;DHT22;52989;48.796;9.806;2022-07-18T10:33:01;28.20;44.00
66184;DHT22;52989;48.796;9.806;2022-07-18T10:36:01;28.40;44.30
66184;DHT22;52989;48.796;9.806;2022-07-18T10:38:26;28.40;45.10
66184;DHT22;52989;48.796;9.806;2022-07-18T10:41:12;28.40;44.10
66184;DHT22;52989;48.796;9.806;2022-07-18T10:43:43;28.50;45.60
66184;DHT22;52989;48.796;9.806;2022-07-18T10:46:10;28.20;48.20
66184;DHT22;52989;48.796;9.806;2022-07-18T10:51:13;28.30;42.90
66184;DHT22;52989;48.796;9.806;2022-07-18T10:57:03;28.30;43.00
66184;DHT22;52989;48.796;9.806;2022-07-18T10:59:19;28.10;43.20
66184;DHT22;52989;48.796;9.806;2022-07-18T11:01:49;28.10;43.10
66184;DHT22;52989;48.796;9.806;2022-07-18T11:04:37;28.20;42.10
66184;DHT22;52989;48.796;9.806;2022-07-18T11:07:09;28.10;42.90
66184;DHT22;52989;48.796;9.806;2022-07-18T11:15:00;28.00;42.60
66184;DHT22;52989;48.796;9.806;2022-07-18T11:22:48;28.10;42.90
66184;DHT22;52989;48.796;9.806;2022-07-18T11:25:17;28.30;42.30
66184;DHT22;52989;48.796;9.806;2022-07-18T11:27:43;28.30;42.50
66184;DHT22;52989;48.796;9.806;2022-07-18T11:30:09;28.00;42.80
66184;DHT22;52989;48.796;9.806;2022-07-18T11:32:36;28.10;42.80
66184;DHT22;52989;48.796;9.806;2022-07-18T11:35:02;28.00;42.80
66184;DHT22;52989;48.796;9.806;2022-07-18T11:37:31;28.00;42.10
66184;DHT22;52989;48.796;9.806;2022-07-18T11:40:08;28.20;42.70
66184;DHT22;52989;48.796;9.806;2022-07-18T11:42:38;28.10;43.20
66184;DHT22;52989;48.796;9.806;2022-07-18T11:45:08;28.20;45.00
66184;DHT22;52989;48.796;9.806;2022-07-18T11:50:11;28.30;43.80
66184;DHT22;52989;48.796;9.806;2022-07-18T11:52:37;28.20;43.70
66184;DHT22;52989;48.796;9.806;2022-07-18T11:55:02;28.20;43.50
66184;DHT22;52989;48.796;9.806;2022-07-18T11:57:30;28.40;45.30
66184;DHT22;52989;48.796;9.806;2022-07-18T11:59:57;28.30;44.90
66184;DHT22;52989;48.796;9.806;2022-07-18T12:05:33;28.50;43.90
66184;DHT22;52989;48.796;9.806;2022-07-18T12:07:59;28.50;43.30
66184;DHT22;52989;48.796;9.806;2022-07-18T12:10:24;28.70;43.50
66184;DHT22;52989;48.796;9.806;2022-07-18T12:12:50;29.00;43.70
66184;DHT22;52989;48.796;9.806;2022-07-18T12:15:16;29.20;41.90
66184;DHT22;52989;48.796;9.806;2022-07-18T12:17:48;29.10;41.80
66184;DHT22;52989;48.796;9.806;2022-07-18T12:20:20;29.00;42.20
66184;DHT22;52989;48.796;9.806;2022-07-18T12:23:06;29.00;41.30
66184;DHT22;52989;48.796;9.806;2022-07-18T12:25:42;29.10;41.90
66184;DHT22;52989;48.796;9.806;2022-07-18T12:28:15;29.20;41.20
66184;DHT22;52989;48.796;9.806;2022-07-18T12:30:42;29.50;41.00
66184;DHT22;52989;48.796;9.806;2022-07-18T12:33:08;29.50;42.20
66184;DHT22;52989;48.796;9.806;2022-07-18T12:35:37;29.50;40.40
66184;DHT22;52989;48.796;9.806;2022-07-18T12:38:07;29.70;43.00
66184;DHT22;52989;48.796;9.806;2022-07-18T12:43:24;29.90;43.30
66184;DHT22;52989;48.796;9.806;2022-07-18T12:45:50;30.00;41.90
66184;DHT22;52989;48.796;9.806;2022-07-18T12:48:16;30.00;40.30
66184;DHT22;52989;48.796;9.806;2022-07-18T12:50:43;29.90;41.30
66184;DHT22;52989;48.796;9.806;2022-07-18T12:53:09;29.90;40.00
66184;DHT22;52989;48.796;9.806;2022-07-18T12:55:36;30.00;42.40
66184;DHT22;52989;48.796;9.806;2022-07-18T12:58:03;30.00;41.60
66184;DHT22;52989;48.796;9.806;2022-07-18T13:00:30;30.00;41.60
66184;DHT22;52989;48.796;9.806;2022-07-18T13:02:56;30.20;42.90
66184;DHT22;52989;48.796;9.806;2022-07-18T13:05:24;30.20;41.50
66184;DHT22;52989;48.796;9.806;2022-07-18T13:07:49;30.30;41.20
66184;DHT22;52989;48.796;9.806;2022-07-18T13:10:15;30.30;42.10
66184;DHT22;52989;48.796;9.806;2022-07-18T13:12:41;30.30;41.40
66184;DHT22;52989;48.796;9.806;2022-07-18T13:15:07;30.40;41.20
66184;DHT22;52989;48.796;9.806;2022-07-18T13:17:32;30.40;41.40
66184;DHT22;52989;48.796;9.806;2022-07-18T13:19:58;30.30;39.60
66184;DHT22;52989;48.796;9.806;2022-07-18T13:22:24;30.40;40.60
66184;DHT22;52989;48.796;9.806;2022-07-18T13:24:49;30.40;42.50
66184;DHT22;52989;48.796;9.806;2022-07-18T13:27:15;30.60;40.20
66184;DHT22;52989;48.796;9.806;2022-07-18T13:29:41;30.60;42.20
66184;DHT22;52989;48.796;9.806;2022-07-18T13:32:07;30.80;39.80
66184;DHT22;52989;48.796;9.806;2022-07-18T13:34:34;31.00;40.50
66184;DHT22;52989;48.796;9.806;2022-07-18T13:37:00;31.00;39.60
66184;DHT22;52989;48.796;9.806;2022-07-18T13:39:25;31.00;42.30
66184;DHT22;52989;48.796;9.806;2022-07-18T13:41:51;30.80;39.20
66184;DHT22;52989;48.796;9.806;2022-07-18T13:44:16;30.90;40.00
66184;DHT22;52989;48.796;9.806;2022-07-18T13:46:42;31.00;40.00
66184;DHT22;52989;48.796;9.806;2022-07-18T13:49:09;31.10;39.90
66184;DHT22;52989;48.796;9.806;2022-07-18T13:51:35;31.30;40.30
66184;DHT22;52989;48.796;9.806;2022-07-18T13:54:05;31.30;43.30
66184;DHT22;52989;48.796;9.806;2022-07-18T13:56:32;31.30;41.00
66184;DHT22;52989;48.796;9.806;2022-07-18T13:58:58;31.30;40.30
66184;DHT22;52989;48.796;9.806;2022-07-18T14:01:23;31.20;39.40
66184;DHT22;52989;48.796;9.806;2022-07-18T14:03:49;31.30;38.90
66184;DHT22;52989;48.796;9.806;2022-07-18T14:06:15;31.30;39.00
66184;DHT22;52989;48.796;9.806;2022-07-18T14:08:41;31.20;40.30
66184;DHT22;52989;48.796;9.806;2022-07-18T14:11:07;31.20;39.10
66184;DHT22;52989;48.796;9.806;2022-07-18T14:13:33;31.00;38.90
66184;DHT22;52989;48.796;9.806;2022-07-18T14:15:58;31.00;38.60
66184;DHT22;52989;48.796;9.806;2022-07-18T14:18:24;31.20;39.90
66184;DHT22;52989;48.796;9.806;2022-07-18T14:20:49;31.50;40.40
66184;DHT22;52989;48.796;9.806;2022-07-18T14:23:15;31.30;40.70
66184;DHT22;52989;48.796;9.806;2022-07-18T14:25:41;31.20;39.70
66184;DHT22;52989;48.796;9.806;2022-07-18T14:28:06;31.30;39.20
66184;DHT22;52989;48.796;9.806;2022-07-18T14:30:32;31.50;42.20
66184;DHT22;52989;48.796;9.806;2022-07-18T14:32:57;31.50;39.20
66184;DHT22;52989;48.796;9.806;2022-07-18T14:35:23;31.60;40.60
66184;DHT22;52989;48.796;9.806;2022-07-18T14:37:49;31.80;39.50
66184;DHT22;52989;48.796;9.806;2022-07-18T14:40:16;31.70;38.50
66184;DHT22;52989;48.796;9.806;2022-07-18T14:42:41;31.40;37.90
66184;DHT22;52989;48.796;9.806;2022-07-18T14:45:08;31.40;38.50
66184;DHT22;52989;48.796;9.806;2022-07-18T14:47:33;31.60;38.90
66184;DHT22;52989;48.796;9.806;2022-07-18T14:50:02;31.60;37.90
66184;DHT22;52989;48.796;9.806;2022-07-18T14:52:28;31.60;38.60
66184;DHT22;52989;48.796;9.806;2022-07-18T14:54:54;31.50;38.30
66184;DHT22;52989;48.796;9.806;2022-07-18T14:57:19;31.60;39.60
66184;DHT22;52989;48.796;9.806;2022-07-18T14:59:45;31.50;39.10
66184;DHT22;52989;48.796;9.806;2022-07-18T15:02:11;31.30;38.10
66184;DHT22;52989;48.796;9.806;2022-07-18T15:04:38;31.30;37.80
66184;DHT22;52989;48.796;9.806;2022-07-18T15:07:03;31.30;38.40
66184;DHT22;52989;48.796;9.806;2022-07-18T15:09:29;31.50;38.50
66184;DHT22;52989;48.796;9.806;2022-07-18T15:11:55;31.40;37.70
66184;DHT22;52989;48.796;9.806;2022-07-18T15:14:20;31.30;38.40
66184;DHT22;52989;48.796;9.806;2022-07-18T15:16:46;31.50;37.80
66184;DHT22;52989;48.796;9.806;2022-07-18T15:19:11;31.50;36.80
66184;DHT22;52989;48.796;9.806;2022-07-18T15:21:37;31.40;39.70
66184;DHT22;52989;48.796;9.806;2022-07-18T15:24:03;31.50;38.10
66184;DHT22;52989;48.796;9.806;2022-07-18T15:26:28;31.40;36.80
66184;DHT22;52989;48.796;9.806;2022-07-18T15:28:54;31.50;37.60
66184;DHT22;52989;48.796;9.806;2022-07-18T15:31:20;32.00;37.10
66184;DHT22;52989;48.796;9.806;2022-07-18T15:33:45;32.10;36.70
66184;DHT22;52989;48.796;9.806;2022-07-18T15:36:11;31.80;38.00
66184;DHT22;52989;48.796;9.806;2022-07-18T15:38:37;31.80;38.50
66184;DHT22;52989;48.796;9.806;2022-07-18T15:41:10;31.50;37.70
66184;DHT22;52989;48.796;9.806;2022-07-18T15:43:36;31.50;37.60
66184;DHT22;52989;48.796;9.806;2022-07-18T15:46:03;31.40;36.80
66184;DHT22;52989;48.796;9.806;2022-07-18T15:48:29;31.50;36.40
66184;DHT22;52989;48.796;9.806;2022-07-18T15:50:56;31.50;37.00
66184;DHT22;52989;48.796;9.806;2022-07-18T15:53:21;31.50;36.90
66184;DHT22;52989;48.796;9.806;2022-07-18T15:55:47;31.50;36.80